Time;durP1;ratioP1;P1;durP2;ratioP2;P2;SDS_P1;SDS_P2;PMS_P1;PMS_P2;Temp;Humidity;BMP_temperature;BMP_pressure;BME280_temperature;BME280_humidity;BME280_pressure;Samples;Min_cycle;Max_cycle;Signal;HPM_P1;HPM_P2
2023/10/09 00:01:25;;;;;;;28.42;13.77;;;;;;;16.12;100.00;102014.47;5069317;28;20502;-64
2023/10/09 00:03:53;;;;;;;26.90;13.02;;;;;;;16.15;100.00;102014.38;5068734;28;20028;-71
2023/10/09 00:06:24;;;;;;;21.55;12.55;;;;;;;16.23;100.00;102012.28;5068703;28;20029;-71
2023/10/09 00:08:54;;;;;;;22.98;11.70;;;;;;;16.29;100.00;102013.84;5068291;28;20050;-71
2023/10/09 00:11:19;;;;;;;19.40;11.20;;;;;;;16.37;100.00;102010.84;5069182;28;20051;-71
2023/10/09 00:13:49;;;;;;;26.20;11.63;;;;;;;16.44;100.00;102019.47;5068953;28;20471;-70
2023/10/09 00:16:34;;;;;;;18.77;10.68;;;;;;;16.50;100.00;102020.06;5062496;28;20073;-71
2023/10/09 00:19:51;;;;;;;21.25;10.00;;;;;;;16.52;100.00;102022.66;5063539;28;20029;-71
2023/10/09 00:21:50;;;;;;;17.05;9.85;;;;;;;16.64;100.00;102024.84;5046621;28;20102;-69
2023/10/09 00:24:24;;;;;;;15.65;8.75;;;;;;;16.67;100.00;102022.06;5053450;28;20040;-72
2023/10/09 00:27:02;;;;;;;17.10;9.52;;;;;;;16.70;100.00;102017.56;5047758;28;20033;-69
2023/10/09 00:29:34;;;;;;;17.63;9.45;;;;;;;16.75;100.00;102008.44;5058585;28;20064;-70
2023/10/09 00:32:13;;;;;;;16.58;8.70;;;;;;;16.78;100.00;102010.09;5061412;28;20104;-71
2023/10/09 00:34:42;;;;;;;16.60;10.00;;;;;;;16.82;100.00;102008.19;5062249;28;20031;-72
2023/10/09 00:37:16;;;;;;;16.85;9.52;;;;;;;16.84;100.00;102015.19;5063371;28;20021;-71
2023/10/09 00:39:44;;;;;;;20.25;9.63;;;;;;;16.84;100.00;102012.50;5059429;28;20364;-69
2023/10/09 00:42:25;;;;;;;17.63;9.68;;;;;;;16.87;100.00;102012.38;5052332;28;20028;-69
2023/10/09 00:44:51;;;;;;;20.58;9.20;;;;;;;16.95;100.00;102012.06;5057618;28;20539;-69
2023/10/09 00:47:23;;;;;;;20.35;9.30;;;;;;;17.01;100.00;102005.63;5055927;28;20033;-70
2023/10/09 00:49:58;;;;;;;22.95;9.35;;;;;;;17.01;100.00;102010.94;5047739;28;20806;-70
2023/10/09 00:52:31;;;;;;;20.00;9.30;;;;;;;17.06;100.00;102003.59;5059310;28;20045;-69
2023/10/09 00:55:03;;;;;;;16.92;9.23;;;;;;;17.09;100.00;102005.28;5064120;28;20111;-70
2023/10/09 00:57:29;;;;;;;16.08;8.60;;;;;;;17.14;100.00;102000.66;5039313;28;20079;-70
2023/10/09 00:59:59;;;;;;;16.00;8.85;;;;;;;17.15;100.00;102003.25;5046371;28;20036;-70
2023/10/09 01:02:35;;;;;;;16.35;8.88;;;;;;;17.16;100.00;101994.31;5061527;28;20033;-69
2023/10/09 01:05:11;;;;;;;20.10;8.93;;;;;;;17.16;100.00;102001.47;5040483;28;20045;-72
2023/10/09 01:07:39;;;;;;;16.63;8.48;;;;;;;17.25;100.00;101992.19;5051532;28;20029;-71
2023/10/09 01:10:09;;;;;;;18.50;9.25;;;;;;;17.25;100.00;101986.88;5063749;28;20024;-71
2023/10/09 01:12:42;;;;;;;16.63;8.93;;;;;;;17.27;100.00;101988.53;5044248;28;20021;-71
2023/10/09 01:15:07;;;;;;;22.48;9.73;;;;;;;17.26;100.00;101978.81;5060457;28;20039;-71
2023/10/09 01:17:35;;;;;;;14.82;8.93;;;;;;;17.36;100.00;101973.94;5066456;28;20029;-69
2023/10/09 01:20:04;;;;;;;21.13;9.63;;;;;;;17.38;100.00;101972.06;5067521;28;20020;-67
2023/10/09 01:22:30;;;;;;;;;;;;;;;17.42;100.00;101965.66;5068329;28;20024;-67
2023/10/09 01:24:55;;;;;;;13.77;8.43;;;;;;;17.44;100.00;101960.28;5066161;28;20318;-72
2023/10/09 01:27:24;;;;;;;16.35;8.30;;;;;;;17.48;100.00;101956.53;5067845;28;20336;-70
2023/10/09 01:29:51;;;;;;;14.80;8.35;;;;;;;17.49;100.00;101952.06;5067223;28;20028;-72
2023/10/09 01:32:18;;;;;;;17.30;8.45;;;;;;;17.43;100.00;101943.41;5066790;28;20052;-72
2023/10/09 01:34:45;;;;;;;14.23;7.90;;;;;;;17.48;100.00;101947.66;5067294;28;20074;-70
2023/10/09 01:37:18;;;;;;;15.45;8.13;;;;;;;17.42;100.00;101944.34;5066982;28;20029;-69
2023/10/09 01:39:48;;;;;;;10.82;7.35;;;;;;;17.49;100.00;101938.75;5066242;28;20016;-68
2023/10/09 01:42:23;;;;;;;17.88;7.85;;;;;;;17.42;100.00;101940.81;5067313;28;20020;-72
2023/10/09 01:44:49;;;;;;;14.50;8.25;;;;;;;17.45;100.00;101950.50;5066734;28;20036;-69
2023/10/09 01:47:14;;;;;;;15.85;7.97;;;;;;;17.45;100.00;101946.00;5049734;28;20029;-71
2023/10/09 01:49:43;;;;;;;15.68;7.55;;;;;;;17.48;100.00;101945.00;5066519;28;20529;-71
2023/10/09 01:52:09;;;;;;;;;;;;;;;17.47;100.00;101943.28;5049420;28;20073;-70
2023/10/09 01:54:37;;;;;;;14.45;6.93;;;;;;;17.45;100.00;101940.69;5066289;28;19912;-69
2023/10/09 01:57:10;;;;;;;16.60;7.90;;;;;;;17.39;100.00;101939.16;5066893;28;20017;-67
2023/10/09 01:59:38;;;;;;;13.75;7.70;;;;;;;17.40;100.00;101943.56;5066945;28;20879;-72
2023/10/09 02:02:12;;;;;;;17.23;7.68;;;;;;;17.38;100.00;101939.22;5049618;28;20048;-69
2023/10/09 02:04:40;;;;;;;15.80;7.53;;;;;;;17.38;100.00;101940.13;5066397;28;20037;-70
2023/10/09 02:07:08;;;;;;;15.63;7.80;;;;;;;17.39;100.00;101936.50;5067235;28;20167;-70
2023/10/09 02:09:34;;;;;;;23.45;7.50;;;;;;;17.41;100.00;101936.44;5065624;28;20021;-66
2023/10/09 02:12:00;;;;;;;18.45;7.47;;;;;;;17.34;100.00;101929.66;5050121;28;20494;-72
2023/10/09 02:14:26;;;;;;;13.30;7.40;;;;;;;17.36;100.00;101928.66;5071242;28;20379;-69
2023/10/09 02:17:09;;;;;;;13.55;7.72;;;;;;;17.33;100.00;101912.81;5052102;28;20044;-71
2023/10/09 02:19:35;;;;;;;16.02;7.53;;;;;;;17.36;100.00;101910.00;5070127;28;20024;-64
2023/10/09 02:22:26;;;;;;;14.27;7.47;;;;;;;17.35;100.00;101902.94;5070883;28;20769;-72
2023/10/09 02:27:19;;;;;;;14.40;6.78;;;;;;;17.39;100.00;101903.66;5071169;28;20124;-73
2023/10/09 02:29:47;;;;;;;14.63;7.22;;;;;;;17.43;100.00;101913.25;5070254;28;20397;-73
2023/10/09 02:32:14;;;;;;;13.57;7.40;;;;;;;17.46;100.00;101922.91;5070034;28;20024;-71
2023/10/09 02:34:40;;;;;;;16.20;7.40;;;;;;;17.48;100.00;101921.00;5070890;28;20028;-69
2023/10/09 02:37:06;;;;;;;17.52;8.00;;;;;;;17.55;100.00;101919.81;5070106;28;20017;-71
2023/10/09 02:39:43;;;;;;;12.57;6.72;;;;;;;17.55;100.00;101922.50;5069940;28;20021;-72
2023/10/09 02:42:23;;;;;;;15.75;7.38;;;;;;;17.59;100.00;101925.84;5070347;28;20024;-68
2023/10/09 02:44:51;;;;;;;14.10;7.32;;;;;;;17.59;100.00;101921.41;5069308;28;20025;-69
2023/10/09 02:47:24;;;;;;;13.05;6.63;;;;;;;17.62;100.00;101917.72;5070486;28;20120;-72
2023/10/09 02:49:50;;;;;;;16.00;7.30;;;;;;;17.64;100.00;101915.88;5051438;28;20021;-70
2023/10/09 02:52:19;;;;;;;20.52;7.35;;;;;;;17.66;100.00;101912.19;5069319;28;20032;-70
2023/10/09 02:54:47;;;;;;;13.13;7.10;;;;;;;17.62;100.00;101899.94;5069149;28;20021;-70
2023/10/09 02:57:22;;;;;;;13.20;6.85;;;;;;;17.65;100.00;101914.91;5069245;28;20025;-69
2023/10/09 02:59:51;;;;;;;12.27;6.40;;;;;;;17.63;100.00;101903.44;5070008;28;20028;-67
2023/10/09 03:02:16;;;;;;;;;;;;;;;17.68;100.00;101904.13;5070630;28;20044;-70
2023/10/09 03:04:42;;;;;;;15.90;6.90;;;;;;;17.64;100.00;101891.88;5068886;28;19963;-71
2023/10/09 03:07:07;;;;;;;14.25;7.03;;;;;;;17.63;100.00;101896.34;5052017;28;20052;-68
2023/10/09 03:09:34;;;;;;;15.05;7.57;;;;;;;17.64;100.00;101905.19;5050488;28;20429;-71
2023/10/09 03:12:11;;;;;;;12.38;6.72;;;;;;;17.61;100.00;101903.53;5052377;28;20158;-70
2023/10/09 03:14:41;;;;;;;16.23;7.53;;;;;;;17.60;100.00;101896.47;5069737;28;20028;-70
2023/10/09 03:17:11;;;;;;;15.18;6.82;;;;;;;17.63;100.00;101896.34;5052352;28;20044;-69
2023/10/09 03:19:39;;;;;;;13.88;6.88;;;;;;;17.64;100.00;101898.06;5068596;28;20486;-70
2023/10/09 03:22:09;;;;;;;14.82;6.95;;;;;;;17.67;100.00;101895.25;5069670;28;20039;-72
2023/10/09 03:24:36;;;;;;;12.60;6.80;;;;;;;17.68;100.00;101897.00;5067695;28;20037;-71
2023/10/09 03:27:02;;;;;;;13.15;6.57;;;;;;;17.71;100.00;101903.97;5069946;28;20383;-73
2023/10/09 03:29:27;;;;;;;14.27;7.00;;;;;;;17.70;100.00;101890.72;5069343;28;20356;-70
2023/10/09 03:31:55;;;;;;;14.38;6.85;;;;;;;17.68;100.00;101891.66;5069432;28;20021;-71
2023/10/09 03:34:21;;;;;;;14.43;6.72;;;;;;;17.72;100.00;101904.81;5050944;28;20029;-71
2023/10/09 03:36:51;;;;;;;15.50;7.95;;;;;;;17.74;100.00;101922.50;5030769;28;20066;-70
2023/10/09 03:42:04;;;;;;;18.77;8.18;;;;;;;17.72;100.00;101939.47;5050276;28;20044;-65
2023/10/09 03:44:35;;;;;;;16.52;8.68;;;;;;;17.71;100.00;101935.97;5057802;28;20130;-71
2023/10/09 03:47:01;;;;;;;16.73;7.93;;;;;;;17.76;100.00;101935.75;5069643;28;20056;-69
2023/10/09 03:49:27;;;;;;;13.55;8.00;;;;;;;17.72;100.00;101928.81;5068592;28;20467;-71
2023/10/09 03:51:52;;;;;;;19.58;8.10;;;;;;;17.70;100.00;101936.03;5069333;28;20040;-72
2023/10/09 03:54:22;;;;;;;18.00;8.38;;;;;;;17.63;100.00;101927.44;5068010;28;20451;-68
2023/10/09 03:56:51;;;;;;;20.38;8.57;;;;;;;17.64;100.00;101919.38;5068191;28;20464;-68
2023/10/09 03:59:19;;;;;;;21.38;9.50;;;;;;;17.63;100.00;101915.00;5068305;28;20024;-70
2023/10/09 04:01:45;;;;;;;;;;;;;;;17.62;100.00;101926.59;5069135;28;20495;-66
2023/10/09 04:04:13;;;;;;;16.33;8.85;;;;;;;17.53;100.00;101919.03;5068634;28;19927;-71
2023/10/09 04:06:39;;;;;;;24.00;8.63;;;;;;;17.52;100.00;101919.97;5069022;28;20529;-70
2023/10/09 04:11:46;;;;;;;16.25;8.57;;;;;;;17.50;100.00;101930.69;5068122;28;20153;-67
2023/10/09 04:14:24;;;;;;;16.85;8.98;;;;;;;17.45;100.00;101919.38;5051163;28;20077;-65
2023/10/09 04:17:03;;;;;;;19.90;8.73;;;;;;;17.50;100.00;101921.81;5068719;28;20129;-68
2023/10/09 04:19:29;;;;;;;17.98;8.73;;;;;;;17.52;100.00;101909.31;5069476;28;20591;-68
2023/10/09 04:21:58;;;;;;;18.45;8.43;;;;;;;17.54;100.00;101897.63;5051008;28;20099;-64
2023/10/09 04:24:23;;;;;;;;;;;;;;;17.57;100.00;101893.94;5067854;28;20031;-70
2023/10/09 04:26:55;;;;;;;17.50;8.60;;;;;;;17.58;100.00;101882.34;5049560;28;19912;-66
2023/10/09 04:29:27;;;;;;;17.30;8.57;;;;;;;17.60;100.00;101880.50;5067732;28;20501;-68
2023/10/09 04:31:55;;;;;;;14.38;7.93;;;;;;;17.54;100.00;101889.63;5049759;28;20423;-66
2023/10/09 04:34:48;;;;;;;17.27;7.95;;;;;;;17.63;100.00;101896.34;5067850;28;20417;-66
2023/10/09 04:39:46;;;;;;;16.17;8.57;;;;;;;17.64;100.00;101902.53;5067475;28;20093;-72
2023/10/09 04:42:36;;;;;;;12.60;7.47;;;;;;;17.67;100.00;101913.06;5068306;28;20051;-71
2023/10/09 04:47:36;;;;;;;;;;;;;;;17.72;100.00;101918.16;5048831;28;20128;-65
2023/10/09 04:50:36;;;;;;;15.07;7.28;;;;;;;17.74;100.00;101918.94;5048608;28;19963;-67
2023/10/09 04:53:22;;;;;;;14.90;7.90;;;;;;;17.68;100.00;101918.31;5052382;28;20111;-66
2023/10/09 04:55:54;;;;;;;17.20;7.60;;;;;;;17.68;100.00;101913.00;5067990;28;20079;-66
2023/10/09 04:58:26;;;;;;;18.52;8.18;;;;;;;17.74;100.00;101908.28;5044759;28;20033;-67
2023/10/09 05:03:42;;;;;;;16.40;7.30;;;;;;;17.71;100.00;101919.09;5066868;28;20036;-66
2023/10/09 05:06:20;;;;;;;18.13;7.72;;;;;;;17.70;100.00;101934.22;5066196;28;20027;-64
2023/10/09 05:08:48;;;;;;;15.60;7.75;;;;;;;17.74;100.00;101935.81;5052801;28;20051;-65
2023/10/09 05:14:12;;;;;;;16.00;6.90;;;;;;;17.82;100.00;101954.09;5066679;28;20181;-66
2023/10/09 05:16:53;;;;;;;11.43;6.95;;;;;;;17.85;100.00;101953.94;5066256;28;20055;-65
2023/10/09 05:22:16;;;;;;;16.38;7.10;;;;;;;17.88;100.00;101943.16;5066213;28;20039;-65
2023/10/09 05:24:47;;;;;;;14.23;6.60;;;;;;;17.91;100.00;101951.00;5065793;28;20058;-66
2023/10/09 05:27:18;;;;;;;14.75;6.57;;;;;;;17.97;100.00;101957.00;5066990;28;20059;-65
2023/10/09 05:29:59;;;;;;;13.85;6.95;;;;;;;17.98;100.00;101964.91;5066549;28;20417;-66
2023/10/09 05:32:34;;;;;;;12.93;6.18;;;;;;;18.01;100.00;101971.91;5067027;28;20035;-67
2023/10/09 05:37:33;;;;;;;12.98;6.38;;;;;;;18.12;100.00;101950.09;5049330;28;20040;-64
2023/10/09 05:47:56;;;;;;;11.95;6.05;;;;;;;18.19;100.00;101920.34;5069271;28;20068;-65
2023/10/09 05:50:34;;;;;;;13.70;6.60;;;;;;;18.18;100.00;101929.31;5070700;28;20032;-65
2023/10/09 06:06:18;;;;;;;12.05;6.25;;;;;;;18.16;100.00;101917.88;5070358;28;20460;-63
2023/10/09 06:14:04;;;;;;;16.48;6.95;;;;;;;18.18;100.00;101891.97;5069399;28;20094;-62
2023/10/09 06:16:41;;;;;;;15.88;6.25;;;;;;;18.18;100.00;101872.41;5069861;28;20048;-63
2023/10/09 06:19:58;;;;;;;19.52;6.90;;;;;;;18.21;100.00;101866.09;5068898;28;20034;-64
2023/10/09 06:24:55;;;;;;;15.98;6.38;;;;;;;18.24;100.00;101922.81;5069359;28;20043;-62
2023/10/09 06:32:50;;;;;;;18.60;6.97;;;;;;;18.25;100.00;101945.00;5069639;28;20048;-66
2023/10/09 06:35:21;;;;;;;13.57;7.82;;;;;;;18.24;100.00;101964.63;5069968;28;20024;-65
2023/10/09 06:46:40;;;;;;;;;;;;;;;18.28;100.00;101961.75;5069987;28;20037;-62
2023/10/09 06:48:46;;;;;;;19.10;7.03;;;;;;;18.28;100.00;101971.53;5069175;28;19912;-63
2023/10/09 06:59:04;;;;;;;15.05;6.70;;;;;;;18.46;100.00;101955.56;5068596;28;20523;-63
2023/10/09 07:01:42;;;;;;;16.00;6.93;;;;;;;18.41;100.00;101962.00;5069802;28;20479;-64
2023/10/09 07:06:52;;;;;;;15.57;6.78;;;;;;;18.60;100.00;101944.22;5048807;28;20110;-65
2023/10/09 07:11:57;;;;;;;16.23;6.63;;;;;;;18.61;100.00;101920.13;5048917;28;20082;-64
2023/10/09 07:17:21;;;;;;;19.90;7.90;;;;;;;18.64;100.00;101914.63;5066424;28;20032;-64
2023/10/09 07:24:58;;;;;;;15.60;6.53;;;;;;;18.66;100.00;101894.03;5067751;28;20036;-65
2023/10/09 07:38:11;;;;;;;17.52;6.28;;;;;;;19.02;100.00;101916.22;5066883;28;20024;-64
2023/10/09 07:43:45;;;;;;;15.18;6.22;;;;;;;19.23;100.00;101894.69;5068818;28;20039;-64
2023/10/09 07:46:30;;;;;;;14.35;6.32;;;;;;;19.27;100.00;101895.38;5067477;28;20036;-65
2023/10/09 07:48:56;;;;;;;12.68;5.88;;;;;;;19.24;100.00;101884.88;5067505;28;20487;-65
2023/10/09 07:51:23;;;;;;;14.10;6.43;;;;;;;19.16;100.00;101890.59;5049245;28;20049;-65
2023/10/09 07:53:57;;;;;;;15.05;6.53;;;;;;;19.12;100.00;101903.28;5066306;28;20024;-65
2023/10/09 07:56:29;;;;;;;15.10;6.07;;;;;;;19.31;100.00;101923.66;5068702;28;20032;-65
2023/10/09 07:59:00;;;;;;;14.57;6.53;;;;;;;19.44;100.00;101922.03;5067330;28;20505;-65
2023/10/09 08:03:57;;;;;;;12.63;5.80;;;;;;;19.60;100.00;101939.94;5068251;28;20041;-65
2023/10/09 08:06:38;;;;;;;13.18;6.10;;;;;;;19.69;100.00;101944.75;5047148;28;20032;-64
2023/10/09 08:17:05;;;;;;;13.25;6.80;;;;;;;19.89;100.00;101964.16;5063537;28;20041;-64
2023/10/09 08:19:33;;;;;;;18.05;7.35;;;;;;;19.91;100.00;101975.66;5067901;28;20382;-64
2023/10/09 08:24:52;;;;;;;23.10;7.18;;;;;;;20.03;100.00;101989.31;5047519;28;20084;-64
2023/10/09 08:32:44;;;;;;;18.48;7.78;;;;;;;20.23;100.00;102008.75;5047410;28;20041;-62
2023/10/09 08:37:53;;;;;;;18.02;7.80;;;;;;;20.41;100.00;102010.34;5047473;28;20400;-65
2023/10/09 08:40:21;;;;;;;23.15;8.38;;;;;;;20.56;100.00;102007.75;5048829;28;20021;-65
2023/10/09 08:42:53;;;;;;;16.83;6.75;;;;;;;20.66;100.00;102018.78;5048630;28;20021;-65
2023/10/09 08:45:24;;;;;;;15.32;7.85;;;;;;;20.70;100.00;102031.03;5047927;28;20028;-64
2023/10/09 08:47:52;;;;;;;15.48;7.38;;;;;;;20.68;100.00;102028.44;5047436;28;20025;-65
2023/10/09 08:50:19;;;;;;;15.85;7.07;;;;;;;20.82;100.00;102035.69;5030022;28;20057;-63
2023/10/09 08:52:46;;;;;;;17.48;6.55;;;;;;;20.93;100.00;102036.91;5046540;28;20025;-63
2023/10/09 08:55:12;;;;;;;15.20;6.53;;;;;;;20.95;100.00;102046.56;5029449;28;20033;-64
2023/10/09 08:57:40;;;;;;;14.07;5.90;;;;;;;21.05;100.00;102035.31;5053860;28;20115;-63
2023/10/09 09:00:09;;;;;;;9.70;5.38;;;;;;;21.09;100.00;102031.50;5063701;28;20039;-64
2023/10/09 09:02:36;;;;;;;19.73;5.72;;;;;;;21.13;100.00;102034.84;5065920;28;20059;-63
2023/10/09 09:05:16;;;;;;;10.88;5.43;;;;;;;21.15;100.00;102038.28;5065644;28;20032;-63
2023/10/09 09:07:42;;;;;;;10.65;5.22;;;;;;;21.16;100.00;102043.56;5045766;28;20036;-64
2023/10/09 09:10:17;;;;;;;9.77;5.28;;;;;;;21.10;100.00;102051.97;5058245;28;20481;-63
2023/10/09 09:12:46;;;;;;;15.18;5.00;;;;;;;21.16;100.00;102048.06;5056086;28;20028;-64
2023/10/09 09:15:19;;;;;;;12.90;4.95;;;;;;;21.21;100.00;102049.53;5045801;28;20511;-62
2023/10/09 09:17:45;;;;;;;9.85;5.55;;;;;;;21.28;100.00;102062.56;5061632;28;20028;-64
2023/10/09 09:20:28;;;;;;;12.43;5.38;;;;;;;21.24;100.00;102066.34;5066575;28;20070;-63
2023/10/09 09:22:57;;;;;;;17.15;4.75;;;;;;;21.23;100.00;102064.63;5064699;28;20086;-63
2023/10/09 09:25:31;;;;;;;9.30;4.88;;;;;;;21.24;100.00;102056.50;5048274;28;20029;-63
2023/10/09 09:27:57;;;;;;;14.10;5.28;;;;;;;21.16;100.00;102058.78;5065746;28;20463;-64
2023/10/09 09:30:32;;;;;;;8.70;4.93;;;;;;;21.19;100.00;102054.09;5066756;28;20078;-62
2023/10/09 09:33:16;;;;;;;12.98;5.35;;;;;;;21.39;100.00;102052.03;5066153;28;20031;-64
2023/10/09 09:36:03;;;;;;;12.25;4.78;;;;;;;21.38;100.00;102055.69;5066657;28;20099;-64
2023/10/09 09:38:41;;;;;;;7.97;4.40;;;;;;;21.45;100.00;102065.06;5065602;28;20478;-63
2023/10/09 09:41:07;;;;;;;10.20;5.00;;;;;;;21.45;100.00;102062.38;5066715;28;20032;-62
2023/10/09 09:43:35;;;;;;;15.15;4.88;;;;;;;21.38;100.00;102058.34;5065611;28;20430;-64
2023/10/09 09:46:03;;;;;;;10.95;5.05;;;;;;;21.45;100.00;102059.72;5066783;28;20028;-64
2023/10/09 09:48:32;;;;;;;10.65;5.07;;;;;;;21.58;100.00;102062.47;5065542;28;20070;-62
2023/10/09 09:50:57;;;;;;;11.77;5.60;;;;;;;21.50;100.00;102069.28;5048984;28;20056;-63
2023/10/09 09:53:24;;;;;;;16.00;5.32;;;;;;;21.53;100.00;102050.31;5064972;28;20059;-60
2023/10/09 09:55:57;;;;;;;18.42;5.55;;;;;;;21.53;100.00;102061.06;5065148;28;20413;-65
2023/10/09 09:58:32;;;;;;;15.27;5.35;;;;;;;21.45;100.00;102069.56;5065511;28;20032;-66
2023/10/09 10:01:04;;;;;;;11.35;4.68;;;;;;;21.42;100.00;102049.16;5066787;28;20483;-64
2023/10/09 10:03:38;;;;;;;7.65;4.55;;;;;;;21.34;100.00;102056.78;5048156;28;20035;-66
2023/10/09 10:06:09;;;;;;;9.57;4.80;;;;;;;21.43;100.00;102050.88;5048514;28;20059;-66
2023/10/09 10:08:38;;;;;;;14.60;4.93;;;;;;;21.38;100.00;102058.34;5048368;28;20029;-63
2023/10/09 10:11:04;;;;;;;12.10;5.00;;;;;;;21.39;100.00;102057.41;5049114;28;20040;-66
2023/10/09 10:13:58;;;;;;;13.77;5.10;;;;;;;21.54;100.00;102052.91;5066870;28;20501;-62
2023/10/09 10:16:23;;;;;;;10.65;4.80;;;;;;;21.56;100.00;102060.88;5065128;28;20068;-65
2023/10/09 10:21:40;;;;;;;13.23;4.72;;;;;;;21.63;100.00;102055.97;5065450;28;20036;-64
2023/10/09 10:24:32;;;;;;;13.18;5.18;;;;;;;21.76;100.00;102056.97;5044129;28;20067;-66
2023/10/09 10:27:09;;;;;;;12.85;4.93;;;;;;;21.92;100.00;102056.00;5046026;28;20380;-66
2023/10/09 10:29:35;;;;;;;13.32;5.22;;;;;;;22.07;100.00;102055.03;5045317;28;20029;-66
2023/10/09 10:32:06;;;;;;;9.70;5.15;;;;;;;22.05;100.00;102073.06;5046131;28;20051;-64
2023/10/09 10:35:06;;;;;;;12.00;5.20;;;;;;;22.13;100.00;102069.88;5049450;28;20025;-64
2023/10/09 10:38:02;;;;;;;12.45;5.38;;;;;;;22.19;100.00;102066.78;5069003;28;20036;-63
2023/10/09 10:43:31;;;;;;;12.43;4.68;;;;;;;22.20;100.00;102083.75;5067164;28;20646;-65
2023/10/09 10:46:24;;;;;;;8.55;5.05;;;;;;;22.33;100.00;102081.16;5068509;28;20479;-64
2023/10/09 10:48:59;;;;;;;13.77;5.63;;;;;;;22.49;100.00;102075.66;5051916;28;20028;-66
2023/10/09 10:51:37;;;;;;;11.77;4.82;;;;;;;22.39;100.00;102071.84;5052098;28;20336;-65
2023/10/09 10:56:48;;;;;;;42.40;6.40;;;;;;;22.41;100.00;102072.59;5066019;28;20038;-63
2023/10/09 10:59:14;;;;;;;57.97;8.70;;;;;;;22.54;100.00;102065.47;5068470;28;20105;-63
2023/10/09 11:10:09;;;;;;;13.45;4.45;;;;;;;22.88;96.94;102070.47;5065686;28;20524;-64
2023/10/09 11:12:55;;;;;;;10.30;5.22;;;;;;;22.78;97.93;102055.94;5065110;28;20032;-64
2023/10/09 11:15:48;;;;;;;14.15;4.78;;;;;;;22.78;98.98;102054.09;5067792;28;20036;-64
2023/10/09 11:18:25;;;;;;;21.73;5.80;;;;;;;22.87;100.00;102066.03;5068925;28;20032;-62
2023/10/09 11:23:36;;;;;;;17.75;5.07;;;;;;;23.03;98.75;102063.16;5059469;28;20029;-62
2023/10/09 11:26:25;;;;;;;48.45;8.38;;;;;;;23.18;97.09;102066.63;5045416;28;20040;-62
2023/10/09 11:32:09;;;;;;;31.27;6.90;;;;;;;23.53;91.95;102077.78;5054122;28;20399;-63
2023/10/09 11:34:36;;;;;;;10.85;4.88;;;;;;;23.41;93.33;102066.03;5050188;28;20166;-67
2023/10/09 11:37:02;;;;;;;10.25;4.47;;;;;;;23.41;93.55;102061.53;5062637;28;20490;-66
2023/10/09 11:39:37;;;;;;;15.15;5.05;;;;;;;23.10;95.40;102060.94;5051492;28;20052;-65
2023/10/09 11:42:11;;;;;;;9.35;4.97;;;;;;;23.00;96.38;102059.84;5050072;28;20027;-66
2023/10/09 11:44:39;;;;;;;8.38;4.60;;;;;;;22.90;98.82;102065.84;5041405;28;20353;-64
2023/10/09 11:52:45;;;;;;;16.30;5.25;;;;;;;22.58;100.00;102060.78;5057944;28;20380;-62
2023/10/09 11:55:14;;;;;;;9.02;5.05;;;;;;;22.37;100.00;102066.59;5062769;28;20039;-61
2023/10/09 11:57:40;;;;;;;13.15;4.97;;;;;;;22.41;100.00;102061.84;5064785;28;20471;-63
2023/10/09 12:03:05;;;;;;;12.13;5.07;;;;;;;22.40;100.00;102055.66;5041665;28;20033;-65
2023/10/09 12:05:31;;;;;;;15.77;5.85;;;;;;;22.50;100.00;102055.03;5056916;28;20033;-62
2023/10/09 12:07:59;;;;;;;10.95;4.85;;;;;;;22.55;100.00;102055.59;5055899;28;20028;-62
2023/10/09 12:10:25;;;;;;;12.23;5.03;;;;;;;22.52;100.00;102048.59;5051332;28;20135;-63
2023/10/09 12:12:54;;;;;;;10.30;4.68;;;;;;;22.57;99.84;102046.50;5057060;28;20123;-63
2023/10/09 12:15:20;;;;;;;12.70;4.95;;;;;;;22.76;98.99;102049.78;5049221;28;20031;-65
2023/10/09 12:17:47;;;;;;;13.90;4.80;;;;;;;22.74;98.41;102046.31;5065680;28;20471;-62
2023/10/09 12:20:30;;;;;;;15.48;5.45;;;;;;;23.07;96.77;102051.25;5065731;28;20017;-65
2023/10/09 12:22:57;;;;;;;12.55;4.68;;;;;;;23.57;95.88;102055.09;5064895;28;20035;-64
2023/10/09 12:25:24;;;;;;;13.25;5.35;;;;;;;23.72;93.17;102039.69;5066365;28;20036;-66
2023/10/09 12:27:49;;;;;;;14.95;5.50;;;;;;;23.95;90.80;102054.19;5052718;28;20028;-64
2023/10/09 12:30:14;;;;;;;16.50;5.00;;;;;;;23.92;89.78;102051.69;5046318;28;20025;-64
2023/10/09 12:32:40;;;;;;;12.93;4.80;;;;;;;23.82;88.68;102042.56;5057859;28;20024;-63
2023/10/09 12:35:17;;;;;;;13.13;4.47;;;;;;;23.69;89.20;102054.19;5059226;28;20032;-64
2023/10/09 12:37:43;;;;;;;9.85;5.20;;;;;;;23.39;91.87;102044.63;5053077;28;20608;-63
2023/10/09 12:40:10;;;;;;;14.63;5.03;;;;;;;23.02;94.44;102052.53;5056363;28;20404;-63
2023/10/09 12:42:36;;;;;;;13.25;4.28;;;;;;;22.83;95.85;102056.47;5057875;28;20027;-63
2023/10/09 12:45:08;;;;;;;13.85;4.35;;;;;;;22.82;95.86;102047.53;5063676;28;20024;-65
2023/10/09 12:47:34;;;;;;;15.07;5.35;;;;;;;22.66;97.02;102045.03;5038967;28;20207;-63
2023/10/09 12:49:59;;;;;;;14.32;5.25;;;;;;;22.51;97.43;102051.41;5064425;28;20119;-63
2023/10/09 12:52:29;;;;;;;14.65;5.70;;;;;;;22.57;98.44;102056.34;5049957;28;20028;-66
2023/10/09 12:54:55;;;;;;;13.68;5.10;;;;;;;22.52;99.41;102059.34;5054011;28;20471;-64
2023/10/09 12:57:21;;;;;;;16.13;5.15;;;;;;;22.36;99.31;102064.84;5052675;28;20070;-65
2023/10/09 12:59:48;;;;;;;18.30;5.22;;;;;;;22.25;100.00;102062.00;5052716;28;20098;-63
2023/10/09 13:02:28;;;;;;;9.77;4.57;;;;;;;22.21;100.00;102053.28;5056459;28;20031;-65
2023/10/09 13:04:54;;;;;;;14.23;5.32;;;;;;;22.32;100.00;102049.91;5062726;28;20079;-63
2023/10/09 13:07:21;;;;;;;17.27;5.30;;;;;;;22.47;100.00;102062.34;5063318;28;20118;-64
2023/10/09 13:10:08;;;;;;;11.55;4.88;;;;;;;22.74;100.00;102049.00;5061972;28;20503;-65
2023/10/09 13:12:33;;;;;;;11.80;5.13;;;;;;;23.05;97.32;102047.81;5054363;28;20044;-62
2023/10/09 13:14:58;;;;;;;14.00;5.30;;;;;;;23.19;96.47;102054.94;5064989;28;20013;-63
2023/10/09 13:17:27;;;;;;;12.25;5.10;;;;;;;22.99;97.05;102058.97;5064771;28;20052;-64
2023/10/09 13:19:52;;;;;;;;;;;;;;;23.08;96.12;102057.47;5066156;28;20442;-65
2023/10/09 13:22:18;;;;;;;12.90;5.38;;;;;;;22.76;97.34;102064.09;5065777;28;19965;-64
2023/10/09 13:24:43;;;;;;;14.77;5.65;;;;;;;22.52;98.21;102059.34;5066753;28;20035;-64
2023/10/09 13:27:09;;;;;;;11.60;5.03;;;;;;;22.33;100.00;102056.97;5066938;28;20391;-65
2023/10/09 13:29:39;;;;;;;10.50;5.10;;;;;;;22.31;100.00;102061.59;5066362;28;20020;-63
2023/10/09 13:32:13;;;;;;;12.98;5.20;;;;;;;22.21;100.00;102051.47;5066442;28;20100;-63
2023/10/09 13:34:44;;;;;;;14.25;5.38;;;;;;;22.34;100.00;102048.00;5066884;28;20473;-63
2023/10/09 13:37:13;;;;;;;11.32;5.28;;;;;;;22.17;100.00;102054.44;5065866;28;20541;-65
2023/10/09 13:39:51;;;;;;;19.65;5.80;;;;;;;22.03;100.00;102058.03;5066551;28;20024;-63
2023/10/09 13:42:17;;;;;;;11.45;4.82;;;;;;;22.08;100.00;102039.78;5066802;28;20419;-64
2023/10/09 13:44:42;;;;;;;12.35;6.28;;;;;;;22.13;100.00;102047.53;5065912;28;20028;-66
2023/10/09 13:47:18;;;;;;;19.17;6.38;;;;;;;22.14;100.00;102044.75;5065945;28;20035;-64
2023/10/09 13:49:50;;;;;;;15.13;5.40;;;;;;;22.28;100.00;102043.00;5065822;28;20031;-63
2023/10/09 13:52:18;;;;;;;11.32;4.78;;;;;;;22.40;100.00;102034.16;5065587;28;20784;-61
2023/10/09 13:54:47;;;;;;;12.93;5.50;;;;;;;22.69;100.00;102036.75;5066460;28;20060;-61
2023/10/09 13:57:14;;;;;;;8.57;4.53;;;;;;;22.87;100.00;102041.00;5066710;28;20029;-62
2023/10/09 13:59:43;;;;;;;11.48;4.80;;;;;;;22.95;98.29;102049.41;5066202;28;20031;-62
2023/10/09 14:02:09;;;;;;;14.27;5.72;;;;;;;22.94;98.15;102053.06;5067147;28;20224;-63
2023/10/09 14:04:35;;;;;;;12.52;5.45;;;;;;;22.84;99.64;102052.81;5066569;28;20151;-63